createdAt,value
2023-03-23T15:58:37.531Z,16.16
2023-03-23T16:01:11.332Z,16.40
2023-03-23T16:03:58.875Z,16.21
2023-03-23T16:06:28.307Z,16.42
2023-03-23T16:08:58.094Z,16.21
2023-03-23T16:11:27.698Z,16.33
2023-03-23T16:13:54.795Z,16.29
2023-03-23T16:16:35.822Z,16.26
2023-03-23T16:19:02.701Z,16.38
2023-03-23T16:21:29.412Z,16.37
2023-03-23T16:23:56.694Z,16.45
2023-03-23T16:26:23.400Z,16.20
2023-03-23T16:28:50.585Z,16.32
2023-03-23T16:31:18.215Z,16.37
2023-03-23T16:33:47.237Z,16.34
2023-03-23T16:36:14.105Z,16.34
2023-03-23T16:38:49.318Z,16.34
2023-03-23T16:41:16.870Z,16.33
2023-03-23T16:43:43.298Z,16.25
2023-03-23T16:46:11.195Z,16.23
2023-03-23T16:48:37.899Z,16.10
2023-03-23T16:51:07.319Z,16.10
2023-03-23T16:53:33.732Z,16.02
2023-03-23T16:56:00.294Z,15.90
2023-03-23T16:58:28.984Z,16.01
2023-03-23T17:00:55.503Z,15.94
2023-03-23T17:03:22.383Z,15.91
2023-03-23T17:05:51.052Z,15.92
2023-03-23T17:08:19.071Z,15.94
2023-03-23T17:10:46.411Z,15.89
2023-03-23T17:13:13.478Z,15.87
2023-03-23T17:15:43.665Z,15.82
2023-03-23T17:18:11.952Z,15.74
2023-03-23T17:20:38.701Z,15.78
2023-03-23T17:23:05.495Z,15.71
2023-03-23T17:25:32.075Z,15.57
2023-03-23T17:28:05.456Z,15.59
2023-03-23T17:30:44.388Z,15.53
2023-03-23T17:33:11.702Z,15.57
2023-03-23T17:35:38.271Z,15.57
2023-03-23T17:38:04.966Z,15.57
2023-03-23T17:40:31.343Z,15.49
2023-03-23T17:42:57.849Z,15.40
2023-03-23T17:45:24.527Z,15.34
2023-03-23T17:47:53.579Z,15.24
2023-03-23T17:50:20.089Z,15.32
2023-03-23T17:52:46.719Z,15.22
2023-03-23T17:55:13.064Z,15.30
2023-03-23T17:57:39.643Z,15.20
2023-03-23T18:00:12.586Z,15.02
2023-03-23T18:02:39.099Z,15.03
2023-03-23T18:05:09.780Z,15.14
2023-03-23T18:07:37.168Z,15.17
2023-03-23T18:10:04.353Z,15.11
2023-03-23T18:12:30.724Z,15.03
2023-03-23T18:15:00.265Z,14.97
2023-03-23T18:17:27.105Z,15.03
2023-03-23T18:19:54.379Z,14.99
2023-03-23T18:22:21.457Z,15.02
2023-03-23T18:24:47.878Z,14.75
2023-03-23T18:27:15.402Z,14.78
2023-03-23T18:29:44.537Z,14.73
2023-03-23T18:32:10.989Z,14.67
2023-03-23T18:34:41.565Z,14.69
2023-03-23T18:37:10.824Z,14.69
2023-03-23T18:39:40.363Z,14.62
2023-03-23T18:42:07.183Z,14.59
2023-03-23T18:44:34.411Z,14.59
2023-03-23T18:47:03.125Z,14.57
2023-03-23T18:49:30.332Z,14.47
2023-03-23T18:51:57.170Z,14.50
2023-03-23T18:54:33.356Z,14.54
2023-03-23T18:57:00.519Z,14.53
2023-03-23T18:59:30.541Z,14.49
2023-03-23T19:01:57.524Z,14.48
2023-03-23T19:04:24.005Z,14.46
2023-03-23T19:06:50.590Z,14.44
2023-03-23T19:09:18.764Z,14.49
2023-03-23T19:11:47.741Z,14.55
2023-03-23T19:14:15.187Z,14.67
2023-03-23T19:16:43.904Z,14.63
2023-03-23T19:19:10.639Z,14.60
2023-03-23T19:21:39.784Z,14.62
2023-03-23T19:24:07.654Z,14.49
2023-03-23T19:26:39.910Z,14.54
2023-03-23T19:31:37.058Z,14.50
2023-03-23T19:34:04.126Z,14.59
2023-03-23T19:36:31.382Z,14.54
2023-03-23T19:38:58.319Z,14.47
2023-03-23T19:41:32.354Z,14.52
2023-03-23T19:43:59.402Z,14.38
2023-03-23T19:46:28.305Z,14.43
2023-03-23T19:48:57.015Z,14.30
2023-03-23T19:51:24.047Z,14.41
2023-03-23T19:53:50.727Z,14.49
2023-03-23T19:56:20.012Z,14.41
2023-03-23T19:58:46.963Z,14.54
2023-03-23T20:01:16.322Z,14.48
2023-03-23T20:03:43.355Z,14.59
2023-03-23T20:06:15.263Z,14.46
2023-03-23T20:08:47.770Z,14.60
2023-03-23T20:11:17.182Z,14.67
2023-03-23T20:13:44.803Z,14.75
2023-03-23T20:16:11.423Z,14.75
2023-03-23T20:18:38.332Z,14.79
2023-03-23T20:21:07.441Z,14.68
2023-03-23T20:23:35.594Z,14.59
2023-03-23T20:26:07.811Z,14.60
2023-03-23T20:28:35.813Z,14.63
2023-03-23T20:31:21.049Z,14.62
2023-03-23T20:34:00.104Z,14.58
2023-03-23T20:36:31.173Z,14.56
2023-03-23T20:38:57.689Z,14.54
2023-03-23T20:41:24.379Z,14.48
2023-03-23T20:43:53.165Z,14.44
2023-03-23T20:46:21.791Z,14.35
2023-03-23T20:48:50.529Z,14.45
2023-03-23T20:51:19.098Z,14.32
2023-03-23T20:53:46.541Z,14.34
2023-03-23T20:56:14.019Z,14.41
2023-03-23T20:58:40.878Z,14.35
2023-03-23T21:01:09.092Z,14.36
2023-03-23T21:03:40.031Z,14.44
2023-03-23T21:06:10.787Z,14.43
2023-03-23T21:08:39.395Z,14.35
2023-03-23T21:11:09.230Z,14.46
2023-03-23T21:13:36.769Z,14.41
2023-03-23T21:16:07.523Z,14.43
2023-03-23T21:18:39.043Z,14.52
2023-03-23T21:21:09.249Z,14.46
2023-03-23T21:23:35.901Z,14.41
2023-03-23T21:26:06.047Z,14.31
2023-03-23T21:28:32.608Z,14.31
2023-03-23T21:31:04.434Z,14.47
2023-03-23T21:33:31.070Z,14.48
2023-03-23T21:35:57.939Z,14.49
2023-03-23T21:38:26.517Z,14.55
2023-03-23T21:40:54.221Z,14.45
2023-03-23T21:43:27.215Z,14.39
2023-03-23T21:45:57.241Z,14.43
2023-03-23T21:48:25.147Z,14.45
2023-03-23T21:50:52.356Z,14.44
2023-03-23T21:53:23.230Z,14.41
2023-03-23T21:55:54.479Z,14.51
2023-03-23T21:58:27.327Z,14.46
2023-03-23T22:00:55.321Z,14.45
2023-03-23T22:03:23.670Z,14.45
2023-03-23T22:05:54.362Z,14.42
2023-03-23T22:08:25.588Z,14.41
2023-03-23T22:11:01.158Z,14.41
2023-03-23T22:13:30.426Z,14.34
2023-03-23T22:16:01.267Z,14.37
2023-03-23T22:18:28.452Z,14.29
2023-03-23T22:20:55.292Z,14.27
2023-03-23T22:23:22.111Z,14.27
2023-03-23T22:25:48.546Z,14.29
2023-03-23T22:28:14.954Z,14.38
2023-03-23T22:30:41.318Z,14.10
2023-03-23T22:33:08.092Z,14.03
2023-03-23T22:35:34.649Z,13.99
2023-03-23T22:38:03.168Z,13.97
2023-03-23T22:40:31.905Z,13.94
2023-03-23T22:42:58.644Z,13.90
2023-03-23T22:45:26.015Z,13.88
2023-03-23T22:47:52.848Z,13.88
2023-03-23T22:50:21.556Z,13.95
2023-03-23T22:52:48.217Z,13.97
2023-03-23T22:55:14.842Z,13.92
2023-03-23T22:57:41.644Z,13.95
2023-03-23T23:00:14.332Z,13.95
2023-03-23T23:02:44.093Z,13.97
2023-03-23T23:05:11.718Z,13.97
2023-03-23T23:07:38.749Z,13.96
2023-03-23T23:10:06.326Z,13.93
2023-03-23T23:12:35.124Z,13.91
2023-03-23T23:15:04.348Z,13.90
2023-03-23T23:17:34.757Z,13.93
2023-03-23T23:20:05.371Z,13.94
2023-03-23T23:22:31.958Z,13.97
2023-03-23T23:24:58.742Z,13.98
2023-03-23T23:27:27.486Z,13.95
2023-03-23T23:29:53.890Z,13.92
2023-03-23T23:32:20.672Z,13.93
2023-03-23T23:34:47.099Z,14.01
2023-03-23T23:37:13.731Z,14.08
2023-03-23T23:39:41.268Z,14.03
2023-03-23T23:42:10.139Z,13.98
2023-03-23T23:44:37.797Z,13.98
2023-03-23T23:47:04.886Z,14.02
2023-03-23T23:49:34.258Z,14.02
2023-03-23T23:52:01.035Z,13.94
2023-03-23T23:54:30.355Z,13.97
2023-03-23T23:57:03.698Z,13.99
2023-03-23T23:59:30.833Z,13.99
